sensor_id;sensor_type;location;lat;lon;timestamp;temperature;humidity
43607;DHT22;29197;44.788;10.366;2023-07-29T00:01:31;25.80;99.90
43607;DHT22;29197;44.788;10.366;2023-07-29T00:04:19;25.50;99.90
43607;DHT22;29197;44.788;10.366;2023-07-29T00:07:08;25.90;99.90
43607;DHT22;29197;44.788;10.366;2023-07-29T00:09:57;25.90;99.90
43607;DHT22;29197;44.788;10.366;2023-07-29T00:12:45;25.90;99.90
43607;DHT22;29197;44.788;10.366;2023-07-29T00:15:34;25.90;99.90
43607;DHT22;29197;44.788;10.366;2023-07-29T00:18:24;25.70;99.90
43607;DHT22;29197;44.788;10.366;2023-07-29T00:21:12;25.70;99.90
43607;DHT22;29197;44.788;10.366;2023-07-29T00:24:01;25.70;99.90
43607;DHT22;29197;44.788;10.366;2023-07-29T00:26:50;25.60;99.90
43607;DHT22;29197;44.788;10.366;2023-07-29T00:29:38;25.60;99.90
43607;DHT22;29197;44.788;10.366;2023-07-29T00:32:29;25.60;99.90
43607;DHT22;29197;44.788;10.366;2023-07-29T00:35:19;25.50;99.90
43607;DHT22;29197;44.788;10.366;2023-07-29T00:38:07;25.50;99.90
43607;DHT22;29197;44.788;10.366;2023-07-29T00:40:57;25.60;99.90
43607;DHT22;29197;44.788;10.366;2023-07-29T00:43:45;25.60;99.90
43607;DHT22;29197;44.788;10.366;2023-07-29T00:46:36;25.60;99.90
43607;DHT22;29197;44.788;10.366;2023-07-29T00:49:26;25.70;99.90
43607;DHT22;29197;44.788;10.366;2023-07-29T00:52:16;25.60;99.90
43607;DHT22;29197;44.788;10.366;2023-07-29T00:55:05;25.70;99.90
43607;DHT22;29197;44.788;10.366;2023-07-29T00:57:54;25.80;99.90
43607;DHT22;29197;44.788;10.366;2023-07-29T01:00:43;25.70;99.90
43607;DHT22;29197;44.788;10.366;2023-07-29T01:03:32;25.60;99.90
43607;DHT22;29197;44.788;10.366;2023-07-29T01:06:26;25.50;99.90
43607;DHT22;29197;44.788;10.366;2023-07-29T01:09:31;25.40;99.90
43607;DHT22;29197;44.788;10.366;2023-07-29T01:12:23;25.40;99.90
43607;DHT22;29197;44.788;10.366;2023-07-29T01:15:19;25.30;99.90
43607;DHT22;29197;44.788;10.366;2023-07-29T01:18:14;25.30;99.90
43607;DHT22;29197;44.788;10.366;2023-07-29T01:21:04;25.20;99.90
43607;DHT22;29197;44.788;10.366;2023-07-29T01:23:59;25.20;99.90
43607;DHT22;29197;44.788;10.366;2023-07-29T01:26:48;25.30;99.90
43607;DHT22;29197;44.788;10.366;2023-07-29T01:29:37;25.40;99.90
43607;DHT22;29197;44.788;10.366;2023-07-29T01:32:29;25.40;99.90
43607;DHT22;29197;44.788;10.366;2023-07-29T01:35:23;25.50;99.90
43607;DHT22;29197;44.788;10.366;2023-07-29T01:38:17;25.60;99.90
43607;DHT22;29197;44.788;10.366;2023-07-29T01:41:08;25.60;99.90
43607;DHT22;29197;44.788;10.366;2023-07-29T01:43:57;25.60;99.90
43607;DHT22;29197;44.788;10.366;2023-07-29T01:46:47;25.60;99.90
43607;DHT22;29197;44.788;10.366;2023-07-29T01:49:35;25.60;99.90
43607;DHT22;29197;44.788;10.366;2023-07-29T01:52:24;25.60;99.90
43607;DHT22;29197;44.788;10.366;2023-07-29T01:55:13;25.60;99.90
43607;DHT22;29197;44.788;10.366;2023-07-29T01:58:03;25.60;99.90
43607;DHT22;29197;44.788;10.366;2023-07-29T02:00:51;25.60;99.90
43607;DHT22;29197;44.788;10.366;2023-07-29T02:03:40;25.50;99.90
43607;DHT22;29197;44.788;10.366;2023-07-29T02:06:28;25.50;99.90
43607;DHT22;29197;44.788;10.366;2023-07-29T02:09:17;25.50;99.90
43607;DHT22;29197;44.788;10.366;2023-07-29T02:12:06;25.50;99.90
43607;DHT22;29197;44.788;10.366;2023-07-29T02:14:56;25.50;99.90
43607;DHT22;29197;44.788;10.366;2023-07-29T02:17:45;25.40;99.90
43607;DHT22;29197;44.788;10.366;2023-07-29T02:20:33;25.40;99.90
43607;DHT22;29197;44.788;10.366;2023-07-29T02:23:22;25.40;99.90
43607;DHT22;29197;44.788;10.366;2023-07-29T02:26:10;25.50;99.90
43607;DHT22;29197;44.788;10.366;2023-07-29T02:28:59;25.50;99.90
43607;DHT22;29197;44.788;10.366;2023-07-29T02:31:49;25.50;99.90
43607;DHT22;29197;44.788;10.366;2023-07-29T02:34:37;25.40;99.90
43607;DHT22;29197;44.788;10.366;2023-07-29T02:37:26;25.30;99.90
43607;DHT22;29197;44.788;10.366;2023-07-29T02:40:14;25.30;99.90
43607;DHT22;29197;44.788;10.366;2023-07-29T02:43:03;25.30;99.90
43607;DHT22;29197;44.788;10.366;2023-07-29T02:45:51;25.30;99.90
43607;DHT22;29197;44.788;10.366;2023-07-29T02:48:42;25.30;99.90
43607;DHT22;29197;44.788;10.366;2023-07-29T02:51:30;25.30;99.90
43607;DHT22;29197;44.788;10.366;2023-07-29T02:54:19;25.30;99.90
43607;DHT22;29197;44.788;10.366;2023-07-29T02:57:08;25.30;99.90
43607;DHT22;29197;44.788;10.366;2023-07-29T02:59:56;25.20;99.90
43607;DHT22;29197;44.788;10.366;2023-07-29T03:02:45;25.30;99.90
43607;DHT22;29197;44.788;10.366;2023-07-29T03:05:35;25.30;99.90
43607;DHT22;29197;44.788;10.366;2023-07-29T03:08:24;25.30;99.90
43607;DHT22;29197;44.788;10.366;2023-07-29T03:11:14;25.20;99.90
43607;DHT22;29197;44.788;10.366;2023-07-29T03:14:03;25.10;99.90
43607;DHT22;29197;44.788;10.366;2023-07-29T03:16:51;25.00;99.90
43607;DHT22;29197;44.788;10.366;2023-07-29T03:19:40;25.00;99.90
43607;DHT22;29197;44.788;10.366;2023-07-29T03:22:30;25.00;99.90
43607;DHT22;29197;44.788;10.366;2023-07-29T03:25:19;24.80;99.90
43607;DHT22;29197;44.788;10.366;2023-07-29T03:28:07;24.80;99.90
43607;DHT22;29197;44.788;10.366;2023-07-29T03:30:56;24.70;99.90
43607;DHT22;29197;44.788;10.366;2023-07-29T03:33:45;24.60;99.90
43607;DHT22;29197;44.788;10.366;2023-07-29T03:36:33;24.50;99.90
43607;DHT22;29197;44.788;10.366;2023-07-29T03:39:24;24.40;99.90
43607;DHT22;29197;44.788;10.366;2023-07-29T03:42:12;24.50;99.90
43607;DHT22;29197;44.788;10.366;2023-07-29T03:45:01;24.50;99.90
43607;DHT22;29197;44.788;10.366;2023-07-29T03:47:49;24.50;99.90
43607;DHT22;29197;44.788;10.366;2023-07-29T03:50:38;24.60;99.90
43607;DHT22;29197;44.788;10.366;2023-07-29T03:53:27;24.60;99.90
43607;DHT22;29197;44.788;10.366;2023-07-29T03:56:16;24.60;99.90
43607;DHT22;29197;44.788;10.366;2023-07-29T03:59:05;24.60;99.90
43607;DHT22;29197;44.788;10.366;2023-07-29T04:01:54;24.60;99.90
43607;DHT22;29197;44.788;10.366;2023-07-29T04:04:42;24.50;99.90
43607;DHT22;29197;44.788;10.366;2023-07-29T04:07:35;24.50;99.90
43607;DHT22;29197;44.788;10.366;2023-07-29T04:10:24;24.50;99.90
43607;DHT22;29197;44.788;10.366;2023-07-29T04:13:13;24.50;99.90
43607;DHT22;29197;44.788;10.366;2023-07-29T04:16:02;24.60;99.90
43607;DHT22;29197;44.788;10.366;2023-07-29T04:18:51;24.70;99.90
43607;DHT22;29197;44.788;10.366;2023-07-29T04:21:39;24.70;99.90
43607;DHT22;29197;44.788;10.366;2023-07-29T04:24:28;24.60;99.90
43607;DHT22;29197;44.788;10.366;2023-07-29T04:27:16;24.60;99.90
43607;DHT22;29197;44.788;10.366;2023-07-29T04:30:08;24.60;99.90
43607;DHT22;29197;44.788;10.366;2023-07-29T04:32:56;24.70;99.90
43607;DHT22;29197;44.788;10.366;2023-07-29T04:35:45;24.70;99.90
43607;DHT22;29197;44.788;10.366;2023-07-29T04:38:34;24.70;99.90
43607;DHT22;29197;44.788;10.366;2023-07-29T04:41:22;24.70;99.90
43607;DHT22;29197;44.788;10.366;2023-07-29T04:44:11;24.70;99.90
43607;DHT22;29197;44.788;10.366;2023-07-29T04:47:01;24.50;99.90
43607;DHT22;29197;44.788;10.366;2023-07-29T04:49:50;24.40;99.90
43607;DHT22;29197;44.788;10.366;2023-07-29T04:52:38;24.40;99.90
43607;DHT22;29197;44.788;10.366;2023-07-29T04:55:27;24.40;99.90
43607;DHT22;29197;44.788;10.366;2023-07-29T04:58:16;24.40;99.90
43607;DHT22;29197;44.788;10.366;2023-07-29T05:01:04;24.40;99.90
43607;DHT22;29197;44.788;10.366;2023-07-29T05:03:54;24.30;99.90
43607;DHT22;29197;44.788;10.366;2023-07-29T05:06:43;24.20;99.90
43607;DHT22;29197;44.788;10.366;2023-07-29T05:09:31;24.20;99.90
43607;DHT22;29197;44.788;10.366;2023-07-29T05:12:20;24.30;99.90
43607;DHT22;29197;44.788;10.366;2023-07-29T05:15:09;24.40;99.90
43607;DHT22;29197;44.788;10.366;2023-07-29T05:17:58;24.40;99.90
43607;DHT22;29197;44.788;10.366;2023-07-29T05:20:48;24.40;99.90
43607;DHT22;29197;44.788;10.366;2023-07-29T05:23:37;24.50;99.90
43607;DHT22;29197;44.788;10.366;2023-07-29T05:26:25;24.70;99.90
43607;DHT22;29197;44.788;10.366;2023-07-29T05:29:14;24.70;99.90
43607;DHT22;29197;44.788;10.366;2023-07-29T05:32:03;24.90;99.90
43607;DHT22;29197;44.788;10.366;2023-07-29T05:34:51;24.90;99.90
43607;DHT22;29197;44.788;10.366;2023-07-29T05:37:41;25.00;99.90
43607;DHT22;29197;44.788;10.366;2023-07-29T05:40:30;25.10;99.90
43607;DHT22;29197;44.788;10.366;2023-07-29T05:43:18;25.20;99.90
43607;DHT22;29197;44.788;10.366;2023-07-29T05:46:07;25.20;99.90
43607;DHT22;29197;44.788;10.366;2023-07-29T05:48:56;25.10;99.90
43607;DHT22;29197;44.788;10.366;2023-07-29T05:51:44;25.00;99.90
43607;DHT22;29197;44.788;10.366;2023-07-29T05:54:34;25.10;99.90
43607;DHT22;29197;44.788;10.366;2023-07-29T05:57:23;25.20;99.90
43607;DHT22;29197;44.788;10.366;2023-07-29T06:00:12;25.20;99.90
43607;DHT22;29197;44.788;10.366;2023-07-29T06:03:00;25.40;99.90
43607;DHT22;29197;44.788;10.366;2023-07-29T06:05:49;25.60;99.90
43607;DHT22;29197;44.788;10.366;2023-07-29T06:08:41;25.70;99.90
43607;DHT22;29197;44.788;10.366;2023-07-29T06:11:31;25.60;99.90
43607;DHT22;29197;44.788;10.366;2023-07-29T06:14:19;25.70;99.90
43607;DHT22;29197;44.788;10.366;2023-07-29T06:17:08;25.70;99.90
43607;DHT22;29197;44.788;10.366;2023-07-29T06:19:58;25.80;99.90
43607;DHT22;29197;44.788;10.366;2023-07-29T06:22:47;25.80;99.90
43607;DHT22;29197;44.788;10.366;2023-07-29T06:25:36;25.90;99.90
43607;DHT22;29197;44.788;10.366;2023-07-29T06:28:26;26.00;99.90
43607;DHT22;29197;44.788;10.366;2023-07-29T06:31:14;25.90;99.90
43607;DHT22;29197;44.788;10.366;2023-07-29T06:34:03;26.00;99.90
43607;DHT22;29197;44.788;10.366;2023-07-29T06:36:51;26.20;99.90
43607;DHT22;29197;44.788;10.366;2023-07-29T06:39:40;26.40;99.90
43607;DHT22;29197;44.788;10.366;2023-07-29T06:42:28;26.50;99.90
43607;DHT22;29197;44.788;10.366;2023-07-29T06:48:07;26.60;99.90
43607;DHT22;29197;44.788;10.366;2023-07-29T06:50:56;26.80;99.90
43607;DHT22;29197;44.788;10.366;2023-07-29T06:53:47;26.90;99.90
43607;DHT22;29197;44.788;10.366;2023-07-29T06:56:36;27.10;99.90
43607;DHT22;29197;44.788;10.366;2023-07-29T06:59:25;27.20;99.90
43607;DHT22;29197;44.788;10.366;2023-07-29T07:02:15;27.40;99.90
43607;DHT22;29197;44.788;10.366;2023-07-29T07:05:04;27.60;99.90
43607;DHT22;29197;44.788;10.366;2023-07-29T07:07:53;27.70;99.90
43607;DHT22;29197;44.788;10.366;2023-07-29T07:10:41;27.90;99.90
43607;DHT22;29197;44.788;10.366;2023-07-29T07:13:30;28.00;99.90
43607;DHT22;29197;44.788;10.366;2023-07-29T07:16:18;28.10;99.90
43607;DHT22;29197;44.788;10.366;2023-07-29T07:19:08;28.20;99.90
43607;DHT22;29197;44.788;10.366;2023-07-29T07:21:57;28.30;99.90
43607;DHT22;29197;44.788;10.366;2023-07-29T07:24:45;28.40;99.90
43607;DHT22;29197;44.788;10.366;2023-07-29T07:27:34;28.40;99.90
43607;DHT22;29197;44.788;10.366;2023-07-29T07:30:23;28.50;99.90
43607;DHT22;29197;44.788;10.366;2023-07-29T07:33:12;28.70;99.90
43607;DHT22;29197;44.788;10.366;2023-07-29T07:38:51;28.30;99.90
43607;DHT22;29197;44.788;10.366;2023-07-29T07:41:40;28.30;99.90
43607;DHT22;29197;44.788;10.366;2023-07-29T07:44:29;28.40;99.90
43607;DHT22;29197;44.788;10.366;2023-07-29T07:47:17;28.40;99.90
43607;DHT22;29197;44.788;10.366;2023-07-29T07:50:06;28.40;99.90
43607;DHT22;29197;44.788;10.366;2023-07-29T07:52:56;28.50;99.90
43607;DHT22;29197;44.788;10.366;2023-07-29T07:55:45;28.70;99.90
43607;DHT22;29197;44.788;10.366;2023-07-29T07:58:34;28.80;99.90
43607;DHT22;29197;44.788;10.366;2023-07-29T08:01:22;28.80;99.90
43607;DHT22;29197;44.788;10.366;2023-07-29T08:04:11;28.90;99.90
43607;DHT22;29197;44.788;10.366;2023-07-29T08:07:00;28.90;99.90
43607;DHT22;29197;44.788;10.366;2023-07-29T08:09:49;28.80;99.90
43607;DHT22;29197;44.788;10.366;2023-07-29T08:12:38;28.80;99.90
43607;DHT22;29197;44.788;10.366;2023-07-29T08:15:26;28.90;99.90
43607;DHT22;29197;44.788;10.366;2023-07-29T08:18:15;28.80;99.90
43607;DHT22;29197;44.788;10.366;2023-07-29T08:21:04;28.90;99.90
43607;DHT22;29197;44.788;10.366;2023-07-29T08:23:53;28.80;99.90
43607;DHT22;29197;44.788;10.366;2023-07-29T08:26:42;28.80;99.90
43607;DHT22;29197;44.788;10.366;2023-07-29T08:29:31;28.80;99.90
43607;DHT22;29197;44.788;10.366;2023-07-29T08:32:20;28.80;99.90
43607;DHT22;29197;44.788;10.366;2023-07-29T08:35:08;28.80;99.90
43607;DHT22;29197;44.788;10.366;2023-07-29T08:37:57;28.80;99.90
43607;DHT22;29197;44.788;10.366;2023-07-29T08:40:52;28.80;99.90
43607;DHT22;29197;44.788;10.366;2023-07-29T08:43:48;28.80;99.90
43607;DHT22;29197;44.788;10.366;2023-07-29T08:46:39;28.90;99.90
43607;DHT22;29197;44.788;10.366;2023-07-29T08:49:29;28.90;99.90
43607;DHT22;29197;44.788;10.366;2023-07-29T08:52:18;29.00;99.90
43607;DHT22;29197;44.788;10.366;2023-07-29T08:55:08;29.00;99.90
43607;DHT22;29197;44.788;10.366;2023-07-29T08:57:57;29.10;99.90
43607;DHT22;29197;44.788;10.366;2023-07-29T09:00:48;29.10;99.90
43607;DHT22;29197;44.788;10.366;2023-07-29T09:03:37;29.10;99.90
43607;DHT22;29197;44.788;10.366;2023-07-29T09:06:26;29.20;99.90
43607;DHT22;29197;44.788;10.366;2023-07-29T09:09:15;29.20;99.90
43607;DHT22;29197;44.788;10.366;2023-07-29T09:12:04;29.20;99.90
43607;DHT22;29197;44.788;10.366;2023-07-29T09:14:54;29.20;99.90
43607;DHT22;29197;44.788;10.366;2023-07-29T09:17:45;29.20;99.90
43607;DHT22;29197;44.788;10.366;2023-07-29T09:20:34;29.20;99.90
43607;DHT22;29197;44.788;10.366;2023-07-29T09:26:12;29.30;99.90
43607;DHT22;29197;44.788;10.366;2023-07-29T09:29:00;29.30;99.90
43607;DHT22;29197;44.788;10.366;2023-07-29T09:31:49;29.40;99.90
43607;DHT22;29197;44.788;10.366;2023-07-29T09:34:41;29.40;99.90
43607;DHT22;29197;44.788;10.366;2023-07-29T09:37:30;29.30;99.90
43607;DHT22;29197;44.788;10.366;2023-07-29T09:40:20;29.40;99.90
43607;DHT22;29197;44.788;10.366;2023-07-29T09:43:09;29.70;99.90
43607;DHT22;29197;44.788;10.366;2023-07-29T09:46:00;29.70;99.90
43607;DHT22;29197;44.788;10.366;2023-07-29T09:48:49;29.70;99.90
43607;DHT22;29197;44.788;10.366;2023-07-29T09:51:39;29.70;99.90
43607;DHT22;29197;44.788;10.366;2023-07-29T09:54:29;29.80;99.90
43607;DHT22;29197;44.788;10.366;2023-07-29T09:57:19;29.70;99.90
43607;DHT22;29197;44.788;10.366;2023-07-29T10:00:11;29.60;99.90
43607;DHT22;29197;44.788;10.366;2023-07-29T10:03:00;29.60;99.90
43607;DHT22;29197;44.788;10.366;2023-07-29T10:05:49;29.50;99.90
43607;DHT22;29197;44.788;10.366;2023-07-29T10:08:40;29.60;99.90
43607;DHT22;29197;44.788;10.366;2023-07-29T10:11:29;29.70;99.90
43607;DHT22;29197;44.788;10.366;2023-07-29T10:14:20;29.80;99.90
43607;DHT22;29197;44.788;10.366;2023-07-29T10:19:58;30.20;99.90
43607;DHT22;29197;44.788;10.366;2023-07-29T10:25:40;30.40;99.90
43607;DHT22;29197;44.788;10.366;2023-07-29T10:31:22;30.50;99.90
43607;DHT22;29197;44.788;10.366;2023-07-29T10:34:12;30.60;99.90
43607;DHT22;29197;44.788;10.366;2023-07-29T10:37:01;30.50;99.90
43607;DHT22;29197;44.788;10.366;2023-07-29T10:39:55;30.40;99.90
43607;DHT22;29197;44.788;10.366;2023-07-29T10:45:44;30.20;99.90
43607;DHT22;29197;44.788;10.366;2023-07-29T10:48:54;30.00;99.90
43607;DHT22;29197;44.788;10.366;2023-07-29T10:51:43;30.00;99.90
43607;DHT22;29197;44.788;10.366;2023-07-29T10:54:42;30.10;99.90
43607;DHT22;29197;44.788;10.366;2023-07-29T10:57:32;30.30;99.90
43607;DHT22;29197;44.788;10.366;2023-07-29T11:00:21;30.50;99.90
43607;DHT22;29197;44.788;10.366;2023-07-29T11:03:13;30.70;99.90
43607;DHT22;29197;44.788;10.366;2023-07-29T11:06:04;30.80;99.90
43607;DHT22;29197;44.788;10.366;2023-07-29T11:08:53;31.00;99.90
43607;DHT22;29197;44.788;10.366;2023-07-29T11:11:42;31.20;99.90
43607;DHT22;29197;44.788;10.366;2023-07-29T11:14:30;31.30;99.90
43607;DHT22;29197;44.788;10.366;2023-07-29T11:17:19;31.50;99.90
43607;DHT22;29197;44.788;10.366;2023-07-29T11:20:10;31.80;99.90
43607;DHT22;29197;44.788;10.366;2023-07-29T11:23:00;32.00;99.90
43607;DHT22;29197;44.788;10.366;2023-07-29T11:25:49;32.20;99.90
43607;DHT22;29197;44.788;10.366;2023-07-29T11:28:38;32.30;99.90
43607;DHT22;29197;44.788;10.366;2023-07-29T11:31:39;32.50;99.90
43607;DHT22;29197;44.788;10.366;2023-07-29T11:34:31;32.50;99.90
43607;DHT22;29197;44.788;10.366;2023-07-29T11:37:21;32.70;99.90
43607;DHT22;29197;44.788;10.366;2023-07-29T11:40:13;32.80;99.90
43607;DHT22;29197;44.788;10.366;2023-07-29T11:43:02;32.90;99.90
43607;DHT22;29197;44.788;10.366;2023-07-29T11:45:51;33.00;99.90
43607;DHT22;29197;44.788;10.366;2023-07-29T11:51:33;32.40;99.90
43607;DHT22;29197;44.788;10.366;2023-07-29T11:54:23;32.40;99.90
43607;DHT22;29197;44.788;10.366;2023-07-29T11:57:13;32.50;99.90
43607;DHT22;29197;44.788;10.366;2023-07-29T12:19:49;32.90;99.90
43607;DHT22;29197;44.788;10.366;2023-07-29T12:22:37;33.10;99.90
43607;DHT22;29197;44.788;10.366;2023-07-29T12:25:26;33.10;99.90
43607;DHT22;29197;44.788;10.366;2023-07-29T12:28:16;33.30;99.90
43607;DHT22;29197;44.788;10.366;2023-07-29T12:31:07;33.30;99.90
43607;DHT22;29197;44.788;10.366;2023-07-29T12:33:56;33.00;99.90
43607;DHT22;29197;44.788;10.366;2023-07-29T12:36:46;33.00;99.90
43607;DHT22;29197;44.788;10.366;2023-07-29T12:39:40;33.10;99.90
43607;DHT22;29197;44.788;10.366;2023-07-29T12:42:29;32.80;99.90
43607;DHT22;29197;44.788;10.366;2023-07-29T12:45:19;33.00;99.90
43607;DHT22;29197;44.788;10.366;2023-07-29T12:48:10;33.20;99.90
43607;DHT22;29197;44.788;10.366;2023-07-29T12:50:59;33.60;99.90
43607;DHT22;29197;44.788;10.366;2023-07-29T12:53:48;33.90;99.90
43607;DHT22;29197;44.788;10.366;2023-07-29T12:56:36;34.10;99.90
43607;DHT22;29197;44.788;10.366;2023-07-29T12:59:25;34.30;99.90
43607;DHT22;29197;44.788;10.366;2023-07-29T13:02:15;34.20;99.90
43607;DHT22;29197;44.788;10.366;2023-07-29T13:05:05;33.80;99.90
43607;DHT22;29197;44.788;10.366;2023-07-29T13:07:54;33.70;99.90
43607;DHT22;29197;44.788;10.366;2023-07-29T13:10:42;33.70;99.90
43607;DHT22;29197;44.788;10.366;2023-07-29T13:13:32;33.60;99.90
43607;DHT22;29197;44.788;10.366;2023-07-29T13:16:20;33.50;99.90
43607;DHT22;29197;44.788;10.366;2023-07-29T13:19:10;33.30;99.90
43607;DHT22;29197;44.788;10.366;2023-07-29T13:21:59;33.00;99.90
43607;DHT22;29197;44.788;10.366;2023-07-29T13:24:49;32.70;99.90
43607;DHT22;29197;44.788;10.366;2023-07-29T13:27:38;32.50;99.90
43607;DHT22;29197;44.788;10.366;2023-07-29T13:30:26;32.30;99.90
43607;DHT22;29197;44.788;10.366;2023-07-29T13:33:15;32.50;99.90
43607;DHT22;29197;44.788;10.366;2023-07-29T13:36:05;32.80;99.90
43607;DHT22;29197;44.788;10.366;2023-07-29T13:38:55;33.00;99.90
43607;DHT22;29197;44.788;10.366;2023-07-29T13:41:44;33.20;99.90
43607;DHT22;29197;44.788;10.366;2023-07-29T13:44:32;33.10;99.90
43607;DHT22;29197;44.788;10.366;2023-07-29T13:47:21;33.30;99.90
43607;DHT22;29197;44.788;10.366;2023-07-29T13:50:10;33.60;99.90
43607;DHT22;29197;44.788;10.366;2023-07-29T13:55:49;33.60;99.90
43607;DHT22;29197;44.788;10.366;2023-07-29T13:58:38;33.50;99.90
43607;DHT22;29197;44.788;10.366;2023-07-29T14:01:27;33.50;99.90
43607;DHT22;29197;44.788;10.366;2023-07-29T14:04:17;33.20;99.90
43607;DHT22;29197;44.788;10.366;2023-07-29T14:09:56;33.40;99.90
43607;DHT22;29197;44.788;10.366;2023-07-29T14:12:48;33.60;99.90
43607;DHT22;29197;44.788;10.366;2023-07-29T14:15:36;34.00;99.90
43607;DHT22;29197;44.788;10.366;2023-07-29T14:18:25;34.30;99.90
43607;DHT22;29197;44.788;10.366;2023-07-29T14:21:13;34.60;99.90
43607;DHT22;29197;44.788;10.366;2023-07-29T14:24:02;34.70;99.90
43607;DHT22;29197;44.788;10.366;2023-07-29T14:26:52;34.90;99.90
43607;DHT22;29197;44.788;10.366;2023-07-29T14:29:41;34.80;99.90
43607;DHT22;29197;44.788;10.366;2023-07-29T14:32:29;34.60;99.90
43607;DHT22;29197;44.788;10.366;2023-07-29T14:35:18;34.50;99.90
43607;DHT22;29197;44.788;10.366;2023-07-29T14:38:06;34.50;99.90
43607;DHT22;29197;44.788;10.366;2023-07-29T14:40:55;34.40;99.90
43607;DHT22;29197;44.788;10.366;2023-07-29T14:43:45;34.30;99.90
43607;DHT22;29197;44.788;10.366;2023-07-29T14:46:34;34.10;99.90
43607;DHT22;29197;44.788;10.366;2023-07-29T14:49:23;33.90;99.90
43607;DHT22;29197;44.788;10.366;2023-07-29T14:52:11;33.60;99.90
43607;DHT22;29197;44.788;10.366;2023-07-29T14:55:00;33.30;99.90
43607;DHT22;29197;44.788;10.366;2023-07-29T14:57:49;33.40;99.90
43607;DHT22;29197;44.788;10.366;2023-07-29T15:00:39;33.50;99.90
43607;DHT22;29197;44.788;10.366;2023-07-29T15:06:16;33.00;99.90
43607;DHT22;29197;44.788;10.366;2023-07-29T15:09:05;32.70;99.90
43607;DHT22;29197;44.788;10.366;2023-07-29T15:11:53;32.50;99.90
43607;DHT22;29197;44.788;10.366;2023-07-29T15:14:45;32.40;99.90
43607;DHT22;29197;44.788;10.366;2023-07-29T15:17:36;32.10;99.90
43607;DHT22;29197;44.788;10.366;2023-07-29T15:20:25;32.00;99.90
43607;DHT22;29197;44.788;10.366;2023-07-29T15:23:13;32.00;99.90
43607;DHT22;29197;44.788;10.366;2023-07-29T15:26:02;31.90;99.90
43607;DHT22;29197;44.788;10.366;2023-07-29T15:28:50;32.00;99.90
43607;DHT22;29197;44.788;10.366;2023-07-29T15:31:40;32.40;99.90
43607;DHT22;29197;44.788;10.366;2023-07-29T15:34:30;32.70;99.90
43607;DHT22;29197;44.788;10.366;2023-07-29T15:37:19;33.10;99.90
43607;DHT22;29197;44.788;10.366;2023-07-29T15:42:57;33.50;99.90
43607;DHT22;29197;44.788;10.366;2023-07-29T15:45:45;33.60;99.90
43607;DHT22;29197;44.788;10.366;2023-07-29T15:48:34;33.70;99.90
43607;DHT22;29197;44.788;10.366;2023-07-29T15:51:24;33.60;99.90
43607;DHT22;29197;44.788;10.366;2023-07-29T15:54:12;33.40;99.90
43607;DHT22;29197;44.788;10.366;2023-07-29T15:57:01;33.20;99.90
43607;DHT22;29197;44.788;10.366;2023-07-29T15:59:50;33.30;99.90
43607;DHT22;29197;44.788;10.366;2023-07-29T16:02:38;33.20;99.90
43607;DHT22;29197;44.788;10.366;2023-07-29T16:05:27;33.20;99.90
43607;DHT22;29197;44.788;10.366;2023-07-29T16:08:17;33.20;99.90
43607;DHT22;29197;44.788;10.366;2023-07-29T16:11:06;33.30;99.90
43607;DHT22;29197;44.788;10.366;2023-07-29T16:13:54;33.30;99.90
43607;DHT22;29197;44.788;10.366;2023-07-29T16:16:43;33.20;99.90
43607;DHT22;29197;44.788;10.366;2023-07-29T16:19:31;33.20;99.90
43607;DHT22;29197;44.788;10.366;2023-07-29T16:22:20;33.10;99.90
43607;DHT22;29197;44.788;10.366;2023-07-29T16:25:10;33.10;99.90
43607;DHT22;29197;44.788;10.366;2023-07-29T16:27:58;32.90;99.90
43607;DHT22;29197;44.788;10.366;2023-07-29T16:30:47;32.80;99.90
43607;DHT22;29197;44.788;10.366;2023-07-29T16:33:35;32.80;99.90
43607;DHT22;29197;44.788;10.366;2023-07-29T16:36:24;32.70;99.90
43607;DHT22;29197;44.788;10.366;2023-07-29T16:39:13;32.50;99.90
43607;DHT22;29197;44.788;10.366;2023-07-29T16:42:03;32.50;99.90
43607;DHT22;29197;44.788;10.366;2023-07-29T16:44:52;32.40;99.90
43607;DHT22;29197;44.788;10.366;2023-07-29T16:47:41;32.30;99.90
43607;DHT22;29197;44.788;10.366;2023-07-29T16:53:18;32.10;99.90
43607;DHT22;29197;44.788;10.366;2023-07-29T16:56:07;32.10;99.90
43607;DHT22;29197;44.788;10.366;2023-07-29T16:58:57;32.10;99.90
43607;DHT22;29197;44.788;10.366;2023-07-29T17:01:46;32.00;99.90
43607;DHT22;29197;44.788;10.366;2023-07-29T17:04:35;31.90;99.90
43607;DHT22;29197;44.788;10.366;2023-07-29T17:07:24;31.90;99.90
43607;DHT22;29197;44.788;10.366;2023-07-29T17:10:13;31.90;99.90
43607;DHT22;29197;44.788;10.366;2023-07-29T17:13:02;31.90;99.90
43607;DHT22;29197;44.788;10.366;2023-07-29T17:15:52;31.70;99.90
43607;DHT22;29197;44.788;10.366;2023-07-29T17:18:40;31.60;99.90
43607;DHT22;29197;44.788;10.366;2023-07-29T17:21:29;31.50;99.90
43607;DHT22;29197;44.788;10.366;2023-07-29T17:24:17;31.40;99.90
43607;DHT22;29197;44.788;10.366;2023-07-29T17:27:06;31.40;99.90
43607;DHT22;29197;44.788;10.366;2023-07-29T17:29:55;31.40;99.90
43607;DHT22;29197;44.788;10.366;2023-07-29T17:32:45;31.40;99.90
43607;DHT22;29197;44.788;10.366;2023-07-29T17:35:33;31.20;99.90
43607;DHT22;29197;44.788;10.366;2023-07-29T17:38:22;31.10;99.90
43607;DHT22;29197;44.788;10.366;2023-07-29T17:41:11;31.00;99.90
43607;DHT22;29197;44.788;10.366;2023-07-29T17:43:59;31.00;99.90
43607;DHT22;29197;44.788;10.366;2023-07-29T17:46:48;30.90;99.90
43607;DHT22;29197;44.788;10.366;2023-07-29T17:49:38;30.90;99.90
43607;DHT22;29197;44.788;10.366;2023-07-29T17:52:27;31.00;99.90
43607;DHT22;29197;44.788;10.366;2023-07-29T17:55:15;31.00;99.90
43607;DHT22;29197;44.788;10.366;2023-07-29T18:00:53;30.80;99.90
43607;DHT22;29197;44.788;10.366;2023-07-29T18:03:43;30.70;99.90
43607;DHT22;29197;44.788;10.366;2023-07-29T18:06:33;30.80;99.90
43607;DHT22;29197;44.788;10.366;2023-07-29T18:09:22;30.70;99.90
43607;DHT22;29197;44.788;10.366;2023-07-29T18:12:11;30.60;99.90
43607;DHT22;29197;44.788;10.366;2023-07-29T18:14:59;30.60;99.90
43607;DHT22;29197;44.788;10.366;2023-07-29T18:17:48;30.60;99.90
43607;DHT22;29197;44.788;10.366;2023-07-29T18:20:36;30.60;99.90
43607;DHT22;29197;44.788;10.366;2023-07-29T18:23:26;30.50;99.90
43607;DHT22;29197;44.788;10.366;2023-07-29T18:26:15;30.50;99.90
43607;DHT22;29197;44.788;10.366;2023-07-29T18:29:03;30.40;99.90
43607;DHT22;29197;44.788;10.366;2023-07-29T18:31:52;30.40;99.90